sensor_id;sensor_type;location;lat;lon;timestamp;P1;durP1;ratioP1;P2;durP2;ratioP2
41623;SDS011;27319;50.306;18.926;2024-01-27T00:01:58;10.13;;;2.58;;
41623;SDS011;27319;50.306;18.926;2024-01-27T00:05:59;6.00;;;2.50;;
41623;SDS011;27319;50.306;18.926;2024-01-27T00:10:01;10.07;;;2.25;;
41623;SDS011;27319;50.306;18.926;2024-01-27T00:13:02;5.97;;;2.15;;
41623;SDS011;27319;50.306;18.926;2024-01-27T00:16:04;9.98;;;2.65;;
41623;SDS011;27319;50.306;18.926;2024-01-27T00:19:05;11.05;;;2.80;;
41623;SDS011;27319;50.306;18.926;2024-01-27T00:22:07;10.27;;;3.55;;
41623;SDS011;27319;50.306;18.926;2024-01-27T00:26:08;13.23;;;2.53;;
41623;SDS011;27319;50.306;18.926;2024-01-27T00:30:09;19.65;;;4.90;;
41623;SDS011;27319;50.306;18.926;2024-01-27T00:34:10;11.02;;;3.45;;
41623;SDS011;27319;50.306;18.926;2024-01-27T00:38:11;10.43;;;3.95;;
41623;SDS011;27319;50.306;18.926;2024-01-27T00:42:11;8.27;;;2.85;;
41623;SDS011;27319;50.306;18.926;2024-01-27T00:46:12;8.88;;;2.45;;
41623;SDS011;27319;50.306;18.926;2024-01-27T00:50:13;8.63;;;2.38;;
41623;SDS011;27319;50.306;18.926;2024-01-27T00:54:14;10.88;;;3.63;;
41623;SDS011;27319;50.306;18.926;2024-01-27T00:58:14;9.30;;;2.50;;
41623;SDS011;27319;50.306;18.926;2024-01-27T01:02:15;12.30;;;2.63;;
41623;SDS011;27319;50.306;18.926;2024-01-27T01:06:16;13.07;;;2.88;;
41623;SDS011;27319;50.306;18.926;2024-01-27T01:10:17;7.85;;;2.95;;
41623;SDS011;27319;50.306;18.926;2024-01-27T01:14:21;9.43;;;3.13;;
41623;SDS011;27319;50.306;18.926;2024-01-27T01:18:21;12.40;;;3.83;;
41623;SDS011;27319;50.306;18.926;2024-01-27T01:22:22;12.38;;;3.78;;
41623;SDS011;27319;50.306;18.926;2024-01-27T01:26:26;19.67;;;4.57;;
41623;SDS011;27319;50.306;18.926;2024-01-27T01:29:37;10.15;;;2.95;;
41623;SDS011;27319;50.306;18.926;2024-01-27T01:32:38;7.63;;;2.70;;
41623;SDS011;27319;50.306;18.926;2024-01-27T01:35:39;16.45;;;4.38;;
41623;SDS011;27319;50.306;18.926;2024-01-27T01:38:41;8.05;;;2.85;;
41623;SDS011;27319;50.306;18.926;2024-01-27T01:41:41;7.78;;;2.60;;
41623;SDS011;27319;50.306;18.926;2024-01-27T01:44:42;12.85;;;2.92;;
41623;SDS011;27319;50.306;18.926;2024-01-27T01:47:43;10.27;;;3.45;;
41623;SDS011;27319;50.306;18.926;2024-01-27T01:50:45;19.05;;;4.65;;
41623;SDS011;27319;50.306;18.926;2024-01-27T01:53:47;11.23;;;3.08;;
41623;SDS011;27319;50.306;18.926;2024-01-27T01:56:49;7.78;;;2.80;;
41623;SDS011;27319;50.306;18.926;2024-01-27T01:59:50;9.40;;;2.50;;
41623;SDS011;27319;50.306;18.926;2024-01-27T02:02:51;13.70;;;3.40;;
41623;SDS011;27319;50.306;18.926;2024-01-27T02:05:52;18.55;;;3.90;;
41623;SDS011;27319;50.306;18.926;2024-01-27T02:08:55;9.25;;;3.10;;
41623;SDS011;27319;50.306;18.926;2024-01-27T02:12:56;10.52;;;3.15;;
41623;SDS011;27319;50.306;18.926;2024-01-27T02:16:37;17.35;;;3.35;;
41623;SDS011;27319;50.306;18.926;2024-01-27T02:20:37;19.23;;;3.00;;
41623;SDS011;27319;50.306;18.926;2024-01-27T02:24:40;10.35;;;2.80;;
41623;SDS011;27319;50.306;18.926;2024-01-27T02:28:42;8.00;;;2.65;;
41623;SDS011;27319;50.306;18.926;2024-01-27T02:32:43;11.52;;;3.50;;
41623;SDS011;27319;50.306;18.926;2024-01-27T02:36:44;14.70;;;4.20;;
41623;SDS011;27319;50.306;18.926;2024-01-27T02:40:45;8.90;;;3.42;;
41623;SDS011;27319;50.306;18.926;2024-01-27T02:44:45;11.98;;;2.50;;
41623;SDS011;27319;50.306;18.926;2024-01-27T02:48:46;8.55;;;2.58;;
41623;SDS011;27319;50.306;18.926;2024-01-27T02:52:47;10.73;;;2.75;;
41623;SDS011;27319;50.306;18.926;2024-01-27T02:56:48;13.00;;;2.85;;
41623;SDS011;27319;50.306;18.926;2024-01-27T03:00:49;9.90;;;2.50;;
41623;SDS011;27319;50.306;18.926;2024-01-27T03:04:49;16.50;;;3.03;;
41623;SDS011;27319;50.306;18.926;2024-01-27T03:08:50;14.57;;;2.40;;
41623;SDS011;27319;50.306;18.926;2024-01-27T03:12:51;7.88;;;2.20;;
41623;SDS011;27319;50.306;18.926;2024-01-27T03:16:53;19.45;;;6.22;;
41623;SDS011;27319;50.306;18.926;2024-01-27T03:20:54;11.10;;;2.80;;
41623;SDS011;27319;50.306;18.926;2024-01-27T03:24:54;15.68;;;3.75;;
41623;SDS011;27319;50.306;18.926;2024-01-27T03:28:55;14.02;;;3.83;;
41623;SDS011;27319;50.306;18.926;2024-01-27T03:32:56;11.55;;;3.47;;
41623;SDS011;27319;50.306;18.926;2024-01-27T03:36:57;8.43;;;2.88;;
41623;SDS011;27319;50.306;18.926;2024-01-27T03:40:58;18.52;;;5.30;;
41623;SDS011;27319;50.306;18.926;2024-01-27T03:45:01;14.25;;;5.30;;
41623;SDS011;27319;50.306;18.926;2024-01-27T03:49:01;14.82;;;3.80;;
41623;SDS011;27319;50.306;18.926;2024-01-27T03:53:02;17.33;;;4.63;;
41623;SDS011;27319;50.306;18.926;2024-01-27T03:57:03;12.52;;;4.40;;
41623;SDS011;27319;50.306;18.926;2024-01-27T04:01:04;24.30;;;4.90;;
41623;SDS011;27319;50.306;18.926;2024-01-27T04:05:05;15.50;;;3.67;;
41623;SDS011;27319;50.306;18.926;2024-01-27T04:09:06;14.82;;;3.40;;
41623;SDS011;27319;50.306;18.926;2024-01-27T04:13:06;17.98;;;4.68;;
41623;SDS011;27319;50.306;18.926;2024-01-27T04:17:07;23.25;;;5.93;;
41623;SDS011;27319;50.306;18.926;2024-01-27T04:21:08;19.05;;;3.50;;
41623;SDS011;27319;50.306;18.926;2024-01-27T04:25:09;12.63;;;3.70;;
41623;SDS011;27319;50.306;18.926;2024-01-27T04:29:10;14.43;;;3.03;;
41623;SDS011;27319;50.306;18.926;2024-01-27T04:33:11;16.40;;;5.07;;
41623;SDS011;27319;50.306;18.926;2024-01-27T04:37:11;13.80;;;3.03;;
41623;SDS011;27319;50.306;18.926;2024-01-27T04:41:12;13.80;;;3.45;;
41623;SDS011;27319;50.306;18.926;2024-01-27T04:45:14;16.23;;;4.70;;
41623;SDS011;27319;50.306;18.926;2024-01-27T04:49:14;12.43;;;3.33;;
41623;SDS011;27319;50.306;18.926;2024-01-27T04:53:15;12.02;;;2.33;;
41623;SDS011;27319;50.306;18.926;2024-01-27T04:57:15;15.23;;;3.72;;
41623;SDS011;27319;50.306;18.926;2024-01-27T05:01:16;14.05;;;4.22;;
41623;SDS011;27319;50.306;18.926;2024-01-27T05:05:18;14.27;;;4.18;;
41623;SDS011;27319;50.306;18.926;2024-01-27T05:09:22;14.73;;;2.42;;
41623;SDS011;27319;50.306;18.926;2024-01-27T05:13:23;13.68;;;2.65;;
41623;SDS011;27319;50.306;18.926;2024-01-27T05:17:24;10.20;;;2.60;;
41623;SDS011;27319;50.306;18.926;2024-01-27T05:21:25;16.10;;;3.63;;
41623;SDS011;27319;50.306;18.926;2024-01-27T05:25:27;12.00;;;3.10;;
41623;SDS011;27319;50.306;18.926;2024-01-27T05:29:29;16.35;;;4.30;;
41623;SDS011;27319;50.306;18.926;2024-01-27T05:33:30;9.32;;;3.75;;
41623;SDS011;27319;50.306;18.926;2024-01-27T05:37:31;13.55;;;2.70;;
41623;SDS011;27319;50.306;18.926;2024-01-27T05:41:31;11.63;;;3.83;;
41623;SDS011;27319;50.306;18.926;2024-01-27T05:45:32;15.65;;;3.17;;
41623;SDS011;27319;50.306;18.926;2024-01-27T05:49:33;17.25;;;3.63;;
41623;SDS011;27319;50.306;18.926;2024-01-27T05:53:34;14.07;;;3.55;;
41623;SDS011;27319;50.306;18.926;2024-01-27T05:56:35;15.10;;;3.53;;
41623;SDS011;27319;50.306;18.926;2024-01-27T05:59:37;16.10;;;3.03;;
41623;SDS011;27319;50.306;18.926;2024-01-27T06:02:37;12.10;;;3.00;;
41623;SDS011;27319;50.306;18.926;2024-01-27T06:05:39;15.30;;;3.38;;
41623;SDS011;27319;50.306;18.926;2024-01-27T06:08:40;11.00;;;2.42;;
41623;SDS011;27319;50.306;18.926;2024-01-27T06:11:42;11.90;;;2.65;;
41623;SDS011;27319;50.306;18.926;2024-01-27T06:14:42;15.20;;;4.00;;
41623;SDS011;27319;50.306;18.926;2024-01-27T06:18:43;9.18;;;2.58;;
41623;SDS011;27319;50.306;18.926;2024-01-27T06:22:44;9.82;;;3.08;;
41623;SDS011;27319;50.306;18.926;2024-01-27T06:26:45;8.70;;;2.55;;
41623;SDS011;27319;50.306;18.926;2024-01-27T06:30:46;11.43;;;3.15;;
41623;SDS011;27319;50.306;18.926;2024-01-27T06:34:47;8.88;;;2.80;;
41623;SDS011;27319;50.306;18.926;2024-01-27T06:38:48;10.80;;;2.78;;
41623;SDS011;27319;50.306;18.926;2024-01-27T06:42:48;10.95;;;2.40;;
41623;SDS011;27319;50.306;18.926;2024-01-27T06:46:49;9.60;;;2.55;;
41623;SDS011;27319;50.306;18.926;2024-01-27T06:50:50;8.00;;;2.80;;
41623;SDS011;27319;50.306;18.926;2024-01-27T06:54:51;22.05;;;4.97;;
41623;SDS011;27319;50.306;18.926;2024-01-27T06:58:52;21.00;;;3.67;;
41623;SDS011;27319;50.306;18.926;2024-01-27T07:02:53;17.40;;;3.63;;
41623;SDS011;27319;50.306;18.926;2024-01-27T07:06:54;8.05;;;2.60;;
41623;SDS011;27319;50.306;18.926;2024-01-27T07:10:54;9.57;;;3.13;;
41623;SDS011;27319;50.306;18.926;2024-01-27T07:14:55;12.85;;;3.20;;
41623;SDS011;27319;50.306;18.926;2024-01-27T07:18:56;14.32;;;4.63;;
41623;SDS011;27319;50.306;18.926;2024-01-27T07:22:57;12.90;;;3.60;;
41623;SDS011;27319;50.306;18.926;2024-01-27T07:26:59;13.35;;;3.90;;
41623;SDS011;27319;50.306;18.926;2024-01-27T07:30:58;10.98;;;3.55;;
41623;SDS011;27319;50.306;18.926;2024-01-27T07:34:59;11.48;;;3.00;;
41623;SDS011;27319;50.306;18.926;2024-01-27T07:39:00;14.57;;;4.60;;
41623;SDS011;27319;50.306;18.926;2024-01-27T07:43:01;13.93;;;3.80;;
41623;SDS011;27319;50.306;18.926;2024-01-27T07:47:02;15.10;;;3.92;;
41623;SDS011;27319;50.306;18.926;2024-01-27T07:51:02;11.38;;;2.90;;
41623;SDS011;27319;50.306;18.926;2024-01-27T07:55:03;11.93;;;2.72;;
41623;SDS011;27319;50.306;18.926;2024-01-27T07:59:04;13.50;;;3.80;;
41623;SDS011;27319;50.306;18.926;2024-01-27T08:03:05;14.38;;;4.07;;
41623;SDS011;27319;50.306;18.926;2024-01-27T08:07:05;15.02;;;4.00;;
41623;SDS011;27319;50.306;18.926;2024-01-27T08:11:06;14.23;;;3.95;;
41623;SDS011;27319;50.306;18.926;2024-01-27T08:14:53;12.43;;;3.83;;
41623;SDS011;27319;50.306;18.926;2024-01-27T08:17:55;9.35;;;3.28;;
41623;SDS011;27319;50.306;18.926;2024-01-27T08:20:56;20.80;;;4.90;;
41623;SDS011;27319;50.306;18.926;2024-01-27T08:23:57;11.93;;;3.30;;
41623;SDS011;27319;50.306;18.926;2024-01-27T08:26:58;14.57;;;3.85;;
41623;SDS011;27319;50.306;18.926;2024-01-27T08:30:59;17.77;;;4.45;;
41623;SDS011;27319;50.306;18.926;2024-01-27T08:34:59;17.75;;;4.63;;
41623;SDS011;27319;50.306;18.926;2024-01-27T08:39:00;16.80;;;4.10;;
41623;SDS011;27319;50.306;18.926;2024-01-27T08:43:01;12.95;;;3.97;;
41623;SDS011;27319;50.306;18.926;2024-01-27T08:46:26;12.10;;;3.67;;
41623;SDS011;27319;50.306;18.926;2024-01-27T08:50:26;14.52;;;3.85;;
41623;SDS011;27319;50.306;18.926;2024-01-27T08:54:27;15.55;;;4.40;;
41623;SDS011;27319;50.306;18.926;2024-01-27T08:58:28;12.13;;;4.85;;
41623;SDS011;27319;50.306;18.926;2024-01-27T09:01:29;17.65;;;5.05;;
41623;SDS011;27319;50.306;18.926;2024-01-27T09:05:30;14.98;;;4.95;;
41623;SDS011;27319;50.306;18.926;2024-01-27T09:09:31;17.45;;;5.15;;
41623;SDS011;27319;50.306;18.926;2024-01-27T09:13:32;20.95;;;6.90;;
41623;SDS011;27319;50.306;18.926;2024-01-27T09:17:33;17.40;;;6.10;;
41623;SDS011;27319;50.306;18.926;2024-01-27T09:21:33;21.83;;;6.75;;
41623;SDS011;27319;50.306;18.926;2024-01-27T09:25:34;23.90;;;6.25;;
41623;SDS011;27319;50.306;18.926;2024-01-27T09:29:35;19.77;;;6.70;;
41623;SDS011;27319;50.306;18.926;2024-01-27T09:33:36;23.30;;;9.18;;
41623;SDS011;27319;50.306;18.926;2024-01-27T09:37:37;20.40;;;6.18;;
41623;SDS011;27319;50.306;18.926;2024-01-27T09:41:38;17.40;;;6.50;;
41623;SDS011;27319;50.306;18.926;2024-01-27T09:45:04;18.00;;;5.75;;
41623;SDS011;27319;50.306;18.926;2024-01-27T09:48:08;26.17;;;9.02;;
41623;SDS011;27319;50.306;18.926;2024-01-27T09:51:12;28.33;;;7.60;;
41623;SDS011;27319;50.306;18.926;2024-01-27T09:55:13;21.70;;;7.25;;
41623;SDS011;27319;50.306;18.926;2024-01-27T09:58:14;23.98;;;7.00;;
41623;SDS011;27319;50.306;18.926;2024-01-27T10:01:18;16.73;;;5.65;;
41623;SDS011;27319;50.306;18.926;2024-01-27T10:04:21;22.38;;;8.48;;
41623;SDS011;27319;50.306;18.926;2024-01-27T10:07:23;31.70;;;9.77;;
41623;SDS011;27319;50.306;18.926;2024-01-27T10:10:24;24.65;;;8.68;;
41623;SDS011;27319;50.306;18.926;2024-01-27T10:14:25;29.85;;;8.77;;
41623;SDS011;27319;50.306;18.926;2024-01-27T10:18:26;20.17;;;6.45;;
41623;SDS011;27319;50.306;18.926;2024-01-27T10:22:29;17.85;;;7.20;;
41623;SDS011;27319;50.306;18.926;2024-01-27T10:26:32;17.27;;;5.82;;
41623;SDS011;27319;50.306;18.926;2024-01-27T10:30:33;23.67;;;6.75;;
41623;SDS011;27319;50.306;18.926;2024-01-27T10:34:34;18.50;;;7.55;;
41623;SDS011;27319;50.306;18.926;2024-01-27T10:38:44;18.40;;;7.50;;
41623;SDS011;27319;50.306;18.926;2024-01-27T10:42:45;23.77;;;6.60;;
41623;SDS011;27319;50.306;18.926;2024-01-27T10:46:46;17.52;;;6.53;;
41623;SDS011;27319;50.306;18.926;2024-01-27T10:50:51;15.10;;;5.07;;
41623;SDS011;27319;50.306;18.926;2024-01-27T10:54:52;16.52;;;4.82;;
41623;SDS011;27319;50.306;18.926;2024-01-27T10:57:53;21.67;;;5.93;;
41623;SDS011;27319;50.306;18.926;2024-01-27T11:00:56;25.25;;;7.15;;
41623;SDS011;27319;50.306;18.926;2024-01-27T11:03:58;23.85;;;7.18;;
41623;SDS011;27319;50.306;18.926;2024-01-27T11:08:02;30.48;;;7.80;;
41623;SDS011;27319;50.306;18.926;2024-01-27T11:12:03;25.08;;;6.82;;
41623;SDS011;27319;50.306;18.926;2024-01-27T11:16:04;28.88;;;7.85;;
41623;SDS011;27319;50.306;18.926;2024-01-27T11:20:05;27.27;;;10.23;;
41623;SDS011;27319;50.306;18.926;2024-01-27T11:24:15;22.63;;;8.00;;
41623;SDS011;27319;50.306;18.926;2024-01-27T11:28:10;24.55;;;7.13;;
41623;SDS011;27319;50.306;18.926;2024-01-27T11:31:16;23.35;;;10.73;;
41623;SDS011;27319;50.306;18.926;2024-01-27T11:34:19;27.67;;;8.60;;
41623;SDS011;27319;50.306;18.926;2024-01-27T11:37:20;22.05;;;7.47;;
41623;SDS011;27319;50.306;18.926;2024-01-27T11:40:25;26.92;;;9.75;;
41623;SDS011;27319;50.306;18.926;2024-01-27T11:44:06;29.25;;;8.77;;
41623;SDS011;27319;50.306;18.926;2024-01-27T11:47:16;30.33;;;8.80;;
41623;SDS011;27319;50.306;18.926;2024-01-27T11:51:13;22.60;;;6.85;;
41623;SDS011;27319;50.306;18.926;2024-01-27T11:55:14;14.15;;;6.03;;
41623;SDS011;27319;50.306;18.926;2024-01-27T11:59:15;26.27;;;6.07;;
41623;SDS011;27319;50.306;18.926;2024-01-27T12:03:16;24.15;;;5.82;;
41623;SDS011;27319;50.306;18.926;2024-01-27T12:07:17;18.10;;;7.18;;
41623;SDS011;27319;50.306;18.926;2024-01-27T12:10:21;27.42;;;7.28;;
41623;SDS011;27319;50.306;18.926;2024-01-27T12:14:22;18.10;;;8.40;;
41623;SDS011;27319;50.306;18.926;2024-01-27T12:18:25;21.08;;;7.72;;
41623;SDS011;27319;50.306;18.926;2024-01-27T12:22:29;28.23;;;10.45;;
41623;SDS011;27319;50.306;18.926;2024-01-27T12:25:30;23.02;;;8.18;;
41623;SDS011;27319;50.306;18.926;2024-01-27T12:28:34;22.00;;;8.40;;
41623;SDS011;27319;50.306;18.926;2024-01-27T12:32:35;21.63;;;8.77;;
41623;SDS011;27319;50.306;18.926;2024-01-27T12:36:40;24.55;;;7.35;;
41623;SDS011;27319;50.306;18.926;2024-01-27T12:40:30;29.55;;;8.90;;
41623;SDS011;27319;50.306;18.926;2024-01-27T12:44:33;26.20;;;7.50;;
41623;SDS011;27319;50.306;18.926;2024-01-27T12:48:31;20.92;;;8.63;;
41623;SDS011;27319;50.306;18.926;2024-01-27T12:52:32;25.42;;;9.10;;
41623;SDS011;27319;50.306;18.926;2024-01-27T12:56:33;24.52;;;9.13;;
41623;SDS011;27319;50.306;18.926;2024-01-27T12:59:35;24.10;;;8.48;;
41623;SDS011;27319;50.306;18.926;2024-01-27T13:02:36;28.67;;;10.98;;
41623;SDS011;27319;50.306;18.926;2024-01-27T13:06:37;31.92;;;12.50;;
41623;SDS011;27319;50.306;18.926;2024-01-27T13:10:38;36.28;;;15.85;;
41623;SDS011;27319;50.306;18.926;2024-01-27T13:14:39;25.98;;;11.52;;
41623;SDS011;27319;50.306;18.926;2024-01-27T13:18:39;33.03;;;9.63;;
41623;SDS011;27319;50.306;18.926;2024-01-27T13:21:40;24.23;;;9.60;;
41623;SDS011;27319;50.306;18.926;2024-01-27T13:25:41;31.85;;;11.88;;
41623;SDS011;27319;50.306;18.926;2024-01-27T13:29:42;25.70;;;11.45;;
41623;SDS011;27319;50.306;18.926;2024-01-27T13:33:42;32.33;;;10.48;;
41623;SDS011;27319;50.306;18.926;2024-01-27T13:37:43;37.53;;;15.20;;
41623;SDS011;27319;50.306;18.926;2024-01-27T13:41:44;35.83;;;11.70;;
41623;SDS011;27319;50.306;18.926;2024-01-27T13:45:45;32.42;;;11.68;;
41623;SDS011;27319;50.306;18.926;2024-01-27T13:49:46;30.83;;;11.48;;
41623;SDS011;27319;50.306;18.926;2024-01-27T13:53:47;42.95;;;15.00;;
41623;SDS011;27319;50.306;18.926;2024-01-27T13:57:48;31.20;;;11.95;;
41623;SDS011;27319;50.306;18.926;2024-01-27T14:01:49;37.28;;;12.18;;
41623;SDS011;27319;50.306;18.926;2024-01-27T14:05:50;31.27;;;11.60;;
41623;SDS011;27319;50.306;18.926;2024-01-27T14:09:50;46.35;;;15.80;;
41623;SDS011;27319;50.306;18.926;2024-01-27T14:13:51;27.92;;;10.60;;
41623;SDS011;27319;50.306;18.926;2024-01-27T14:17:52;29.45;;;12.52;;
41623;SDS011;27319;50.306;18.926;2024-01-27T14:21:53;40.55;;;10.68;;
41623;SDS011;27319;50.306;18.926;2024-01-27T14:25:54;27.40;;;10.70;;
41623;SDS011;27319;50.306;18.926;2024-01-27T14:29:55;35.42;;;14.38;;
41623;SDS011;27319;50.306;18.926;2024-01-27T14:32:56;65.20;;;21.98;;
41623;SDS011;27319;50.306;18.926;2024-01-27T14:35:59;42.40;;;16.33;;
41623;SDS011;27319;50.306;18.926;2024-01-27T14:39:00;52.17;;;18.58;;
41623;SDS011;27319;50.306;18.926;2024-01-27T14:42:02;58.15;;;23.15;;
41623;SDS011;27319;50.306;18.926;2024-01-27T14:46:03;48.53;;;19.55;;
41623;SDS011;27319;50.306;18.926;2024-01-27T14:50:04;59.88;;;21.23;;
41623;SDS011;27319;50.306;18.926;2024-01-27T14:54:05;54.58;;;22.92;;
41623;SDS011;27319;50.306;18.926;2024-01-27T14:58:05;56.17;;;18.55;;
41623;SDS011;27319;50.306;18.926;2024-01-27T15:02:06;38.75;;;16.75;;
41623;SDS011;27319;50.306;18.926;2024-01-27T15:06:07;39.03;;;15.20;;
41623;SDS011;27319;50.306;18.926;2024-01-27T15:10:08;42.55;;;16.63;;
41623;SDS011;27319;50.306;18.926;2024-01-27T15:14:09;37.83;;;15.60;;
41623;SDS011;27319;50.306;18.926;2024-01-27T15:18:10;47.42;;;18.35;;
41623;SDS011;27319;50.306;18.926;2024-01-27T15:21:26;35.13;;;15.15;;
41623;SDS011;27319;50.306;18.926;2024-01-27T15:25:27;36.92;;;16.00;;
41623;SDS011;27319;50.306;18.926;2024-01-27T15:29:33;37.85;;;15.23;;
41623;SDS011;27319;50.306;18.926;2024-01-27T15:33:34;41.70;;;16.80;;
41623;SDS011;27319;50.306;18.926;2024-01-27T15:37:35;47.72;;;21.42;;
41623;SDS011;27319;50.306;18.926;2024-01-27T15:41:36;41.67;;;17.98;;
41623;SDS011;27319;50.306;18.926;2024-01-27T15:45:37;41.60;;;13.77;;
41623;SDS011;27319;50.306;18.926;2024-01-27T15:49:37;36.78;;;12.63;;
41623;SDS011;27319;50.306;18.926;2024-01-27T15:53:38;32.22;;;12.73;;
41623;SDS011;27319;50.306;18.926;2024-01-27T15:57:39;31.90;;;12.90;;
41623;SDS011;27319;50.306;18.926;2024-01-27T16:00:40;46.08;;;18.60;;
41623;SDS011;27319;50.306;18.926;2024-01-27T16:04:42;45.55;;;16.73;;
41623;SDS011;27319;50.306;18.926;2024-01-27T16:08:43;42.45;;;18.00;;
41623;SDS011;27319;50.306;18.926;2024-01-27T16:12:43;45.70;;;17.65;;
41623;SDS011;27319;50.306;18.926;2024-01-27T16:16:44;28.52;;;13.88;;
41623;SDS011;27319;50.306;18.926;2024-01-27T16:20:45;42.85;;;14.52;;
41623;SDS011;27319;50.306;18.926;2024-01-27T16:24:46;41.63;;;15.05;;
41623;SDS011;27319;50.306;18.926;2024-01-27T16:28:47;51.90;;;19.48;;
41623;SDS011;27319;50.306;18.926;2024-01-27T16:32:48;58.25;;;21.77;;
41623;SDS011;27319;50.306;18.926;2024-01-27T16:36:49;57.08;;;23.25;;
41623;SDS011;27319;50.306;18.926;2024-01-27T16:40:49;49.08;;;21.38;;
41623;SDS011;27319;50.306;18.926;2024-01-27T16:44:50;54.08;;;21.00;;
41623;SDS011;27319;50.306;18.926;2024-01-27T16:48:51;50.08;;;19.52;;
41623;SDS011;27319;50.306;18.926;2024-01-27T16:52:52;52.30;;;21.50;;
41623;SDS011;27319;50.306;18.926;2024-01-27T16:56:53;64.07;;;25.35;;
41623;SDS011;27319;50.306;18.926;2024-01-27T17:00:54;62.40;;;36.95;;
41623;SDS011;27319;50.306;18.926;2024-01-27T17:04:30;43.40;;;22.90;;
41623;SDS011;27319;50.306;18.926;2024-01-27T17:08:31;46.42;;;19.13;;
41623;SDS011;27319;50.306;18.926;2024-01-27T17:12:32;45.97;;;18.10;;
41623;SDS011;27319;50.306;18.926;2024-01-27T17:16:32;34.25;;;13.13;;
41623;SDS011;27319;50.306;18.926;2024-01-27T17:20:33;25.50;;;10.40;;
41623;SDS011;27319;50.306;18.926;2024-01-27T17:24:34;22.88;;;10.70;;
41623;SDS011;27319;50.306;18.926;2024-01-27T17:28:35;41.28;;;17.00;;
41623;SDS011;27319;50.306;18.926;2024-01-27T17:32:36;40.20;;;16.05;;
41623;SDS011;27319;50.306;18.926;2024-01-27T17:36:37;31.50;;;10.85;;
41623;SDS011;27319;50.306;18.926;2024-01-27T17:40:37;24.30;;;11.63;;
41623;SDS011;27319;50.306;18.926;2024-01-27T17:44:38;42.38;;;13.73;;
41623;SDS011;27319;50.306;18.926;2024-01-27T17:48:39;31.50;;;13.57;;
41623;SDS011;27319;50.306;18.926;2024-01-27T17:52:40;38.83;;;16.52;;
41623;SDS011;27319;50.306;18.926;2024-01-27T17:56:41;32.22;;;11.52;;
41623;SDS011;27319;50.306;18.926;2024-01-27T18:00:42;25.58;;;11.95;;
41623;SDS011;27319;50.306;18.926;2024-01-27T18:04:42;27.40;;;9.63;;
41623;SDS011;27319;50.306;18.926;2024-01-27T18:08:43;28.90;;;10.70;;
41623;SDS011;27319;50.306;18.926;2024-01-27T18:12:44;30.40;;;11.52;;
41623;SDS011;27319;50.306;18.926;2024-01-27T18:16:00;38.13;;;12.73;;
41623;SDS011;27319;50.306;18.926;2024-01-27T18:20:01;28.83;;;11.98;;
41623;SDS011;27319;50.306;18.926;2024-01-27T18:24:02;24.13;;;10.20;;
41623;SDS011;27319;50.306;18.926;2024-01-27T18:28:03;29.05;;;12.77;;
41623;SDS011;27319;50.306;18.926;2024-01-27T18:32:04;27.05;;;8.68;;
41623;SDS011;27319;50.306;18.926;2024-01-27T18:36:05;25.35;;;8.02;;
41623;SDS011;27319;50.306;18.926;2024-01-27T18:40:06;26.02;;;10.32;;
41623;SDS011;27319;50.306;18.926;2024-01-27T18:44:07;27.20;;;11.80;;
41623;SDS011;27319;50.306;18.926;2024-01-27T18:48:07;27.23;;;9.70;;
41623;SDS011;27319;50.306;18.926;2024-01-27T18:52:08;32.83;;;11.18;;
41623;SDS011;27319;50.306;18.926;2024-01-27T18:56:09;34.70;;;10.85;;
41623;SDS011;27319;50.306;18.926;2024-01-27T19:00:13;31.10;;;11.73;;
41623;SDS011;27319;50.306;18.926;2024-01-27T19:04:18;29.95;;;10.43;;
41623;SDS011;27319;50.306;18.926;2024-01-27T19:08:19;33.08;;;12.40;;
41623;SDS011;27319;50.306;18.926;2024-01-27T19:12:20;31.33;;;12.18;;
41623;SDS011;27319;50.306;18.926;2024-01-27T19:16:21;30.50;;;10.82;;
41623;SDS011;27319;50.306;18.926;2024-01-27T19:20:22;26.33;;;9.43;;
41623;SDS011;27319;50.306;18.926;2024-01-27T19:24:23;26.42;;;10.27;;
41623;SDS011;27319;50.306;18.926;2024-01-27T19:28:24;42.95;;;14.00;;
41623;SDS011;27319;50.306;18.926;2024-01-27T19:32:25;29.27;;;13.98;;
41623;SDS011;27319;50.306;18.926;2024-01-27T19:36:25;40.45;;;15.88;;
41623;SDS011;27319;50.306;18.926;2024-01-27T19:40:26;40.17;;;18.65;;
41623;SDS011;27319;50.306;18.926;2024-01-27T19:44:27;49.00;;;21.88;;
41623;SDS011;27319;50.306;18.926;2024-01-27T19:48:28;62.30;;;24.85;;
41623;SDS011;27319;50.306;18.926;2024-01-27T19:52:29;61.22;;;30.30;;
41623;SDS011;27319;50.306;18.926;2024-01-27T19:56:30;53.90;;;23.38;;
41623;SDS011;27319;50.306;18.926;2024-01-27T20:00:31;42.83;;;18.40;;
41623;SDS011;27319;50.306;18.926;2024-01-27T20:04:32;43.78;;;18.70;;
41623;SDS011;27319;50.306;18.926;2024-01-27T20:08:32;32.05;;;13.40;;
41623;SDS011;27319;50.306;18.926;2024-01-27T20:12:33;62.08;;;23.65;;
41623;SDS011;27319;50.306;18.926;2024-01-27T20:16:34;59.17;;;23.77;;
41623;SDS011;27319;50.306;18.926;2024-01-27T20:20:35;60.63;;;25.75;;
41623;SDS011;27319;50.306;18.926;2024-01-27T20:24:37;41.30;;;17.77;;
41623;SDS011;27319;50.306;18.926;2024-01-27T20:27:38;31.42;;;11.68;;
41623;SDS011;27319;50.306;18.926;2024-01-27T20:30:39;33.63;;;14.98;;
41623;SDS011;27319;50.306;18.926;2024-01-27T20:34:40;29.70;;;14.40;;
41623;SDS011;27319;50.306;18.926;2024-01-27T20:38:41;40.90;;;16.90;;
41623;SDS011;27319;50.306;18.926;2024-01-27T20:42:42;42.67;;;17.85;;
41623;SDS011;27319;50.306;18.926;2024-01-27T20:46:46;49.42;;;20.80;;
41623;SDS011;27319;50.306;18.926;2024-01-27T20:50:47;37.53;;;18.67;;
41623;SDS011;27319;50.306;18.926;2024-01-27T20:54:48;39.20;;;18.45;;
41623;SDS011;27319;50.306;18.926;2024-01-27T20:58:48;41.72;;;19.88;;
41623;SDS011;27319;50.306;18.926;2024-01-27T21:02:51;47.85;;;20.33;;
41623;SDS011;27319;50.306;18.926;2024-01-27T21:06:53;54.75;;;20.63;;
41623;SDS011;27319;50.306;18.926;2024-01-27T21:10:50;46.13;;;21.05;;
41623;SDS011;27319;50.306;18.926;2024-01-27T21:13:50;67.43;;;28.27;;
41623;SDS011;27319;50.306;18.926;2024-01-27T21:16:51;61.97;;;23.02;;
41623;SDS011;27319;50.306;18.926;2024-01-27T21:19:54;49.83;;;16.95;;
41623;SDS011;27319;50.306;18.926;2024-01-27T21:23:55;61.38;;;19.92;;
41623;SDS011;27319;50.306;18.926;2024-01-27T21:27:55;42.40;;;18.63;;
41623;SDS011;27319;50.306;18.926;2024-01-27T21:31:56;54.22;;;22.23;;
41623;SDS011;27319;50.306;18.926;2024-01-27T21:35:57;66.85;;;27.67;;
41623;SDS011;27319;50.306;18.926;2024-01-27T21:39:58;62.45;;;25.67;;
41623;SDS011;27319;50.306;18.926;2024-01-27T21:43:59;72.43;;;27.83;;
41623;SDS011;27319;50.306;18.926;2024-01-27T21:48:00;60.28;;;22.63;;
41623;SDS011;27319;50.306;18.926;2024-01-27T21:52:01;69.53;;;24.90;;
41623;SDS011;27319;50.306;18.926;2024-01-27T21:56:01;62.70;;;26.40;;
41623;SDS011;27319;50.306;18.926;2024-01-27T22:00:05;66.88;;;25.45;;
41623;SDS011;27319;50.306;18.926;2024-01-27T22:04:06;60.97;;;23.55;;
41623;SDS011;27319;50.306;18.926;2024-01-27T22:08:07;59.33;;;26.70;;
41623;SDS011;27319;50.306;18.926;2024-01-27T22:12:08;50.63;;;23.20;;
41623;SDS011;27319;50.306;18.926;2024-01-27T22:16:09;60.08;;;25.15;;
41623;SDS011;27319;50.306;18.926;2024-01-27T22:20:10;71.82;;;29.67;;